Time;durP1;ratioP1;P1;durP2;ratioP2;P2;SDS_P1;SDS_P2;PMS_P1;PMS_P2;Temp;Humidity;BMP_temperature;BMP_pressure;BME280_temperature;BME280_humidity;BME280_pressure;Samples;Min_cycle;Max_cycle;Signal;HPM_P1;HPM_P2
2023/10/23 00:02:24;;;;;;;4.65;3.90;;;9.40;99.90;;;;;;5036275;28;20201;-66
2023/10/23 00:04:50;;;;;;;6.47;3.78;;;9.00;99.90;;;;;;5035018;28;24153;-66
2023/10/23 00:07:17;;;;;;;8.32;3.63;;;9.30;99.90;;;;;;5008670;28;20877;-67
2023/10/23 00:09:44;;;;;;;5.53;3.95;;;9.30;99.90;;;;;;5027731;28;20197;-67
2023/10/23 00:12:11;;;;;;;9.00;4.28;;;9.30;99.90;;;;;;5034037;28;20216;-66
2023/10/23 00:14:38;;;;;;;7.78;4.10;;;9.10;99.90;;;;;;5027297;28;20197;-66
2023/10/23 00:17:05;;;;;;;4.95;4.32;;;9.30;99.90;;;;;;5040016;28;20236;-66
2023/10/23 00:19:33;;;;;;;5.88;4.35;;;9.40;99.90;;;;;;5044832;28;20201;-66
2023/10/23 00:21:59;;;;;;;5.78;4.22;;;9.30;99.90;;;;;;5004921;28;22547;-66
2023/10/23 00:24:26;;;;;;;6.03;3.80;;;9.20;99.90;;;;;;5042236;28;20205;-66
2023/10/23 00:26:53;;;;;;;7.35;4.57;;;9.20;99.90;;;;;;5026378;28;20212;-66
2023/10/23 00:29:20;;;;;;;5.82;4.32;;;9.20;99.90;;;;;;5041083;28;20671;-66
2023/10/23 00:31:47;;;;;;;7.22;4.22;;;9.50;99.90;;;;;;5026382;28;20661;-67
2023/10/23 00:34:14;;;;;;;5.20;4.57;;;9.20;99.90;;;;;;5045750;28;20228;-66
2023/10/23 00:36:42;;;;;;;4.95;3.85;;;9.20;99.90;;;;;;5006721;28;20963;-66
2023/10/23 00:39:08;;;;;;;8.27;4.30;;;8.90;99.90;;;;;;5043905;28;20197;-66
2023/10/23 00:41:35;;;;;;;4.82;4.32;;;9.10;99.90;;;;;;5042923;28;20193;-66
2023/10/23 00:44:02;;;;;;;5.60;3.70;;;9.20;99.90;;;;;;5038316;28;20204;-66
2023/10/23 00:46:30;;;;;;;6.47;4.80;;;9.20;99.90;;;;;;5026217;28;20209;-66
2023/10/23 00:48:58;;;;;;;6.32;4.20;;;8.80;99.90;;;;;;5037590;28;20197;-66
2023/10/23 00:51:26;;;;;;;5.50;4.60;;;9.20;99.90;;;;;;5048186;28;20198;-67
2023/10/23 00:53:55;;;;;;;6.75;4.53;;;9.00;99.90;;;;;;5003624;28;20205;-67
2023/10/23 00:56:22;;;;;;;7.10;5.00;;;9.10;99.90;;;;;;5039619;28;20228;-66
2023/10/23 00:58:50;;;;;;;6.53;4.68;;;9.00;99.90;;;;;;5031653;28;20228;-66
2023/10/23 01:01:18;;;;;;;6.03;4.47;;;9.00;99.90;;;;;;5042770;28;20200;-66
2023/10/23 01:03:45;;;;;;;9.05;4.65;;;9.00;99.90;;;;;;5021377;28;20212;-67
2023/10/23 01:06:13;;;;;;;7.22;4.70;;;9.00;99.90;;;;;;5041400;28;20196;-66
2023/10/23 01:08:40;;;;;;;6.38;4.30;;;8.90;99.90;;;;;;5001996;28;20204;-66
2023/10/23 01:11:08;;;;;;;9.95;4.72;;;8.90;99.90;;;;;;5036047;28;20689;-66
2023/10/23 01:13:35;;;;;;;6.05;4.88;;;;;;;;;;5026582;28;20201;-66
2023/10/23 01:16:02;;;;;;;6.97;4.93;;;9.00;99.90;;;;;;5037505;28;20237;-66
2023/10/23 01:18:30;;;;;;;5.38;4.75;;;9.10;99.90;;;;;;5024076;28;20197;-66
2023/10/23 01:20:57;;;;;;;6.40;4.85;;;9.00;99.90;;;;;;5037479;28;20461;-66
2023/10/23 01:23:26;;;;;;;5.78;4.20;;;8.90;99.90;;;;;;5024827;28;20668;-66
2023/10/23 01:25:55;;;;;;;5.40;3.95;;;8.90;99.90;;;;;;5015604;28;20419;-66
2023/10/23 01:28:22;;;;;;;7.00;5.07;;;;;;;;;;5044436;28;20197;-66
2023/10/23 01:30:48;;;;;;;6.95;5.05;;;8.90;99.90;;;;;;5026134;28;20202;-66
2023/10/23 01:33:16;;;;;;;6.97;4.25;;;;;;;;;;5032240;28;20707;-66
2023/10/23 01:35:42;;;;;;;6.82;4.82;;;8.90;99.90;;;;;;5036131;28;20227;-66
2023/10/23 01:38:09;;;;;;;6.90;4.60;;;9.00;99.90;;;;;;5039460;28;20196;-66
2023/10/23 01:40:36;;;;;;;6.55;4.18;;;8.80;99.90;;;;;;5001523;28;20228;-66
2023/10/23 01:43:04;;;;;;;5.25;4.60;;;8.80;99.90;;;;;;5040633;28;20209;-66
2023/10/23 01:45:31;;;;;;;7.38;5.05;;;8.80;99.90;;;;;;5032704;28;20679;-66
2023/10/23 01:47:58;;;;;;;6.88;4.43;;;8.60;99.90;;;;;;5022017;28;20216;-66
2023/10/23 01:50:25;;;;;;;6.60;4.47;;;8.80;99.90;;;;;;5039445;28;20196;-66
2023/10/23 01:52:51;;;;;;;12.57;5.00;;;8.80;99.90;;;;;;5041843;28;20575;-67
2023/10/23 01:55:18;;;;;;;4.82;4.15;;;8.80;99.90;;;;;;5004667;28;20705;-66
2023/10/23 01:57:45;;;;;;;5.18;4.40;;;9.00;99.90;;;;;;5036106;28;20197;-66
2023/10/23 02:00:14;;;;;;;6.88;4.60;;;8.80;99.90;;;;;;5032326;28;20199;-66
2023/10/23 02:02:41;;;;;;;8.75;4.07;;;9.20;99.90;;;;;;5036041;28;20205;-66
2023/10/23 02:05:08;;;;;;;6.65;4.80;;;9.00;99.90;;;;;;5021494;28;20927;-66
2023/10/23 02:07:35;;;;;;;5.70;4.30;;;8.80;99.90;;;;;;5035787;28;20205;-67
2023/10/23 02:10:01;;;;;;;6.68;4.80;;;8.30;99.90;;;;;;4999567;28;21829;-67
2023/10/23 02:12:28;;;;;;;7.30;4.80;;;8.90;99.90;;;;;;5027549;28;20197;-66
2023/10/23 02:14:56;;;;;;;5.15;4.35;;;9.00;99.90;;;;;;5023640;28;20220;-66
2023/10/23 02:17:24;;;;;;;6.35;4.38;;;8.70;99.90;;;;;;5009761;28;20716;-67
2023/10/23 02:19:51;;;;;;;5.80;4.07;;;8.70;99.90;;;;;;5025535;28;20224;-66
2023/10/23 02:22:19;;;;;;;6.22;4.15;;;8.60;99.90;;;;;;5031061;28;20208;-67
2023/10/23 02:24:46;;;;;;;5.55;4.65;;;8.50;99.90;;;;;;5030725;28;20197;-67
2023/10/23 02:27:13;;;;;;;5.68;4.18;;;8.60;99.90;;;;;;4996166;28;20668;-66
2023/10/23 02:29:40;;;;;;;4.93;3.83;;;8.40;99.90;;;;;;5030734;28;20663;-66
2023/10/23 02:32:08;;;;;;;4.68;4.18;;;8.40;99.90;;;;;;5019767;28;20285;-66
2023/10/23 02:34:37;;;;;;;4.35;3.80;;;8.40;99.90;;;;;;5007927;28;20202;-67
2023/10/23 02:37:04;;;;;;;6.20;4.70;;;8.90;99.90;;;;;;5031542;28;20237;-66
2023/10/23 02:39:31;;;;;;;5.78;4.45;;;;;;;;;;5034392;28;20209;-66
2023/10/23 02:41:58;;;;;;;6.03;4.38;;;8.20;99.90;;;;;;4998133;28;20247;-67
2023/10/23 02:44:25;;;;;;;5.03;4.03;;;8.10;99.90;;;;;;5035169;28;20204;-66
2023/10/23 02:46:51;;;;;;;6.47;4.03;;;7.90;99.90;;;;;;5032948;28;20197;-67
2023/10/23 02:49:18;;;;;;;4.60;3.50;;;7.90;99.90;;;;;;5028110;28;20206;-66
2023/10/23 02:51:48;;;;;;;4.25;3.65;;;7.90;99.90;;;;;;5011996;28;20201;-66
2023/10/23 02:54:16;;;;;;;6.80;3.60;;;8.70;99.90;;;;;;5022983;28;21069;-66
2023/10/23 02:56:42;;;;;;;4.70;3.87;;;7.80;99.90;;;;;;4999253;28;21549;-66
2023/10/23 02:59:09;;;;;;;4.68;3.72;;;7.70;99.90;;;;;;5032538;28;20200;-66
2023/10/23 03:01:37;;;;;;;4.00;3.17;;;7.70;99.90;;;;;;5029984;28;20197;-66
2023/10/23 03:04:04;;;;;;;4.35;3.30;;;7.90;99.90;;;;;;5005939;28;20204;-66
2023/10/23 03:06:31;;;;;;;4.82;3.35;;;7.70;99.90;;;;;;5012700;28;20214;-66
2023/10/23 03:08:59;;;;;;;3.92;3.00;;;7.70;99.90;;;;;;5021960;28;20206;-66
2023/10/23 03:11:26;;;;;;;6.95;3.22;;;7.60;99.90;;;;;;5034790;28;20228;-67
2023/10/23 03:13:53;;;;;;;3.20;2.90;;;6.80;99.90;;;;;;4986985;28;20213;-66
2023/10/23 03:16:20;;;;;;;4.70;2.92;;;7.30;99.90;;;;;;5037313;28;20236;-66
2023/10/23 03:18:47;;;;;;;7.22;2.85;;;7.70;99.90;;;;;;5029265;28;20195;-66
2023/10/23 03:21:14;;;;;;;3.35;2.83;;;7.70;99.90;;;;;;5034562;28;20204;-66
2023/10/23 03:23:40;;;;;;;3.33;3.03;;;7.90;99.90;;;;;;5019224;28;20205;-66
2023/10/23 03:26:08;;;;;;;7.85;3.10;;;7.70;99.90;;;;;;5024205;28;20211;-66
2023/10/23 03:28:36;;;;;;;3.72;3.00;;;9.30;99.90;;;;;;5008513;28;20676;-67
2023/10/23 03:31:04;;;;;;;3.90;3.30;;;7.10;99.90;;;;;;5030534;28;20201;-66
2023/10/23 03:33:30;;;;;;;4.15;3.47;;;7.60;99.90;;;;;;5031535;28;20229;-66
2023/10/23 03:35:57;;;;;;;3.17;2.88;;;7.50;99.90;;;;;;5020279;28;20209;-66
2023/10/23 03:38:24;;;;;;;4.32;3.08;;;7.30;99.90;;;;;;5017971;28;20209;-66
2023/10/23 03:40:58;;;;;;;4.40;3.38;;;5.00;99.90;;;;;;5022026;28;20201;-66
2023/10/23 03:43:27;;;;;;;3.88;3.28;;;7.30;99.90;;;;;;5027077;28;20315;-66
2023/10/23 03:45:53;;;;;;;4.87;3.73;;;7.10;99.90;;;;;;4985810;28;20370;-66
2023/10/23 03:48:20;;;;;;;3.95;3.53;;;8.10;99.90;;;;;;5030547;28;20196;-66
2023/10/23 03:50:47;;;;;;;3.92;3.50;;;7.30;99.90;;;;;;5025081;28;20625;-66
2023/10/23 03:53:14;;;;;;;4.60;3.58;;;7.30;99.90;;;;;;5022860;28;20209;-66
2023/10/23 03:55:41;;;;;;;6.05;3.85;;;7.40;99.90;;;;;;5042561;28;20197;-66
2023/10/23 03:58:08;;;;;;;3.80;3.10;;;7.20;99.90;;;;;;5013548;28;21865;-66
2023/10/23 04:00:36;;;;;;;4.90;4.00;;;7.30;99.90;;;;;;5001748;28;20213;-66
2023/10/23 04:03:03;;;;;;;4.97;3.47;;;7.20;99.90;;;;;;5038060;28;20201;-66
2023/10/23 04:05:31;;;;;;;4.60;3.63;;;7.20;99.90;;;;;;5040060;28;20212;-66
2023/10/23 04:07:58;;;;;;;5.13;3.47;;;7.30;99.90;;;;;;5025241;28;20208;-66
2023/10/23 04:10:24;;;;;;;4.43;3.47;;;7.20;99.90;;;;;;5039766;28;20196;-66
2023/10/23 04:12:51;;;;;;;4.20;3.20;;;7.10;99.90;;;;;;5029204;28;20212;-66
2023/10/23 04:15:18;;;;;;;5.50;3.57;;;7.10;99.90;;;;;;5023847;28;21268;-66
2023/10/23 04:17:46;;;;;;;3.73;3.33;;;7.10;99.90;;;;;;5003259;28;20240;-66
2023/10/23 04:20:13;;;;;;;5.53;2.87;;;7.20;99.90;;;;;;5036604;28;22012;-66
2023/10/23 04:22:40;;;;;;;10.90;3.50;;;7.10;99.90;;;;;;5038640;28;20193;-66
2023/10/23 04:25:07;;;;;;;3.70;3.00;;;7.50;99.90;;;;;;5017437;28;20204;-66
2023/10/23 04:27:34;;;;;;;14.03;3.47;;;7.00;99.90;;;;;;5027996;28;20558;-66
2023/10/23 04:30:01;;;;;;;8.17;2.53;;;7.10;99.90;;;;;;5010713;28;20707;-66
2023/10/23 04:32:28;;;;;;;9.40;2.53;;;7.00;99.90;;;;;;5002411;28;21208;-66
2023/10/23 04:34:56;;;;;;;20.03;3.10;;;7.10;99.90;;;;;;5023688;28;20212;-67
2023/10/23 04:37:23;;;;;;;27.42;2.88;;;7.10;99.90;;;;;;5036418;28;20224;-66
2023/10/23 04:39:50;;;;;;;25.20;2.97;;;7.00;99.90;;;;;;5024183;28;20205;-66
2023/10/23 04:42:17;;;;;;;19.17;3.10;;;7.10;99.90;;;;;;5032480;28;20475;-66
2023/10/23 04:44:47;;;;;;;30.73;3.58;;;7.10;99.90;;;;;;5030442;28;20211;-66
2023/10/23 04:47:13;;;;;;;8.05;2.97;;;7.90;99.90;;;;;;4993840;28;20900;-66
2023/10/23 04:49:40;;;;;;;29.42;3.10;;;7.20;99.90;;;;;;5033486;28;20205;-66
2023/10/23 04:52:09;;;;;;;6.53;2.40;;;7.10;99.90;;;;;;5026122;28;20314;-66
2023/10/23 04:54:35;;;;;;;16.83;2.77;;;7.10;99.90;;;;;;5023001;28;20223;-66
2023/10/23 04:57:02;;;;;;;3.00;2.50;;;7.10;99.90;;;;;;5033306;28;20221;-66
2023/10/23 04:59:29;;;;;;;10.32;2.60;;;7.00;99.90;;;;;;5025702;28;20204;-66
2023/10/23 05:01:56;;;;;;;10.07;2.90;;;;;;;;;;5024173;28;20219;-66
2023/10/23 05:04:23;;;;;;;9.60;2.53;;;7.00;99.90;;;;;;4987530;28;20215;-66
2023/10/23 05:06:52;;;;;;;11.70;2.57;;;6.90;99.90;;;;;;5030200;28;20847;-66
2023/10/23 05:09:20;;;;;;;17.40;2.58;;;6.90;99.90;;;;;;5019420;28;20633;-66
2023/10/23 05:11:47;;;;;;;8.37;2.67;;;6.90;99.90;;;;;;5041001;28;20737;-66
2023/10/23 05:14:14;;;;;;;9.37;2.63;;;6.80;99.90;;;;;;5034793;28;20196;-66
2023/10/23 05:16:41;;;;;;;4.40;2.87;;;6.90;99.90;;;;;;5029611;28;20248;-66
2023/10/23 05:19:09;;;;;;;4.03;3.03;;;6.80;99.90;;;;;;4992864;28;20215;-66
2023/10/23 05:21:35;;;;;;;10.23;3.10;;;6.90;99.90;;;;;;5037206;28;20197;-66
2023/10/23 05:24:03;;;;;;;10.93;3.07;;;6.90;99.90;;;;;;5045419;28;20193;-66
2023/10/23 05:26:31;;;;;;;13.07;3.13;;;6.90;99.90;;;;;;5014825;28;20205;-66
2023/10/23 05:28:58;;;;;;;9.90;3.03;;;6.90;99.90;;;;;;5036715;28;20222;-66
2023/10/23 05:31:24;;;;;;;8.97;3.50;;;6.90;99.90;;;;;;5029151;28;20201;-65
2023/10/23 05:33:51;;;;;;;8.27;3.27;;;6.90;99.90;;;;;;5005897;28;20229;-66
2023/10/23 05:36:18;;;;;;;29.80;4.07;;;7.00;99.90;;;;;;5031609;28;20282;-66
2023/10/23 05:38:45;;;;;;;25.07;4.13;;;6.70;99.90;;;;;;5042687;28;20225;-66
2023/10/23 05:41:12;;;;;;;50.78;5.43;;;7.10;99.90;;;;;;5013837;28;20193;-66
2023/10/23 05:43:40;;;;;;;51.07;5.93;;;7.10;99.90;;;;;;5020856;28;20225;-66
2023/10/23 05:46:07;;;;;;;35.13;5.30;;;7.40;99.90;;;;;;5037120;28;20193;-66
2023/10/23 05:48:36;;;;;;;62.57;5.77;;;7.20;99.90;;;;;;5020693;28;20204;-66
2023/10/23 05:51:05;;;;;;;20.77;4.47;;;7.60;99.90;;;;;;5002546;28;20248;-66
2023/10/23 05:53:31;;;;;;;35.30;4.80;;;7.10;99.90;;;;;;5039699;28;20201;-66
2023/10/23 05:56:02;;;;;;;57.97;6.30;;;7.10;99.90;;;;;;5020437;28;20228;-66
2023/10/23 05:58:29;;;;;;;20.20;5.17;;;6.30;99.90;;;;;;5023874;28;20225;-66
2023/10/23 06:00:57;;;;;;;36.27;6.20;;;7.20;99.90;;;;;;5033085;28;20197;-66
2023/10/23 06:03:24;;;;;;;39.13;6.43;;;7.20;99.90;;;;;;5026013;28;20207;-66
2023/10/23 06:05:53;;;;;;;30.83;5.80;;;7.20;99.90;;;;;;4988002;28;20236;-66
2023/10/23 06:08:19;;;;;;;31.27;5.23;;;7.10;99.90;;;;;;5030787;28;20955;-66
2023/10/23 06:10:47;;;;;;;32.83;4.88;;;;;;;;;;5032568;28;20584;-66
2023/10/23 06:13:13;;;;;;;23.55;4.68;;;7.20;99.90;;;;;;5028749;28;20252;-66
2023/10/23 06:15:40;;;;;;;19.90;4.80;;;7.30;99.90;;;;;;5035233;28;20201;-66
2023/10/23 06:18:08;;;;;;;23.83;4.50;;;7.20;99.90;;;;;;5032096;28;20227;-66
2023/10/23 06:20:35;;;;;;;15.07;4.60;;;7.10;99.90;;;;;;5000466;28;21229;-66
2023/10/23 06:23:03;;;;;;;25.70;5.43;;;;;;;;;;5022683;28;20208;-66
2023/10/23 06:25:31;;;;;;;43.43;5.30;;;7.10;99.90;;;;;;5027709;28;20207;-66
2023/10/23 06:27:59;;;;;;;38.30;4.87;;;7.00;99.90;;;;;;5019771;28;20388;-66
2023/10/23 06:30:26;;;;;;;50.10;4.80;;;7.00;99.90;;;;;;5031215;28;20208;-66
2023/10/23 06:32:53;;;;;;;38.80;4.40;;;7.00;99.90;;;;;;5035326;28;20256;-66
2023/10/23 06:35:21;;;;;;;31.50;3.95;;;7.00;99.90;;;;;;4995483;28;23155;-66
2023/10/23 06:37:48;;;;;;;30.57;4.20;;;7.10;99.90;;;;;;5019628;28;20227;-66
2023/10/23 06:40:15;;;;;;;65.90;5.47;;;7.10;99.90;;;;;;5018100;28;20231;-66
2023/10/23 06:42:41;;;;;;;40.35;5.03;;;7.10;99.90;;;;;;5037284;28;20816;-66
2023/10/23 06:45:09;;;;;;;20.17;4.20;;;7.50;99.90;;;;;;5022869;28;20201;-66
2023/10/23 06:47:35;;;;;;;40.00;5.17;;;7.10;99.90;;;;;;5033712;28;20216;-66
2023/10/23 06:50:04;;;;;;;45.80;5.53;;;7.00;99.90;;;;;;5000043;28;20205;-66
2023/10/23 06:52:33;;;;;;;53.17;5.10;;;7.10;99.90;;;;;;5032428;28;20207;-66
2023/10/23 06:55:00;;;;;;;37.37;5.17;;;7.20;99.90;;;;;;5031631;28;20244;-66
2023/10/23 06:57:27;;;;;;;32.05;4.78;;;7.20;99.90;;;;;;5022509;28;20818;-66
2023/10/23 06:59:54;;;;;;;21.20;4.33;;;7.00;99.90;;;;;;5016315;28;20220;-66
2023/10/23 07:02:21;;;;;;;42.75;4.80;;;;;;;;;;5030373;28;22517;-66
2023/10/23 07:04:48;;;;;;;21.07;4.83;;;7.40;99.90;;;;;;5033805;28;20202;-66
2023/10/23 07:07:15;;;;;;;18.60;4.78;;;7.40;99.90;;;;;;4997620;28;20217;-66
2023/10/23 07:09:43;;;;;;;12.95;5.30;;;7.40;99.90;;;;;;5024811;28;20314;-66
2023/10/23 07:12:10;;;;;;;23.97;9.17;;;7.60;99.90;;;;;;5013700;28;20205;-66
2023/10/23 07:14:37;;;;;;;27.53;10.03;;;7.50;99.90;;;;;;5026557;28;20299;-66
2023/10/23 07:17:04;;;;;;;28.57;11.00;;;7.40;99.90;;;;;;5021078;28;20200;-66
2023/10/23 07:19:31;;;;;;;18.73;8.98;;;7.50;99.90;;;;;;5036175;28;20239;-66
2023/10/23 07:21:58;;;;;;;38.05;9.10;;;7.60;99.90;;;;;;5004268;28;20235;-66
2023/10/23 07:24:24;;;;;;;19.75;6.47;;;7.60;99.90;;;;;;5029889;28;20212;-66
2023/10/23 07:26:53;;;;;;;20.42;7.65;;;7.70;99.90;;;;;;5037757;28;20315;-66
2023/10/23 07:29:19;;;;;;;40.08;8.07;;;7.70;99.90;;;;;;5036554;28;20215;-66
2023/10/23 07:31:46;;;;;;;41.83;7.43;;;7.60;99.90;;;;;;5025503;28;20535;-66
2023/10/23 07:34:13;;;;;;;21.73;5.97;;;7.70;99.90;;;;;;5031663;28;20233;-66
2023/10/23 07:36:41;;;;;;;11.60;6.30;;;7.80;99.90;;;;;;5001169;28;20193;-66
2023/10/23 07:39:09;;;;;;;8.85;6.18;;;7.80;99.90;;;;;;5027082;28;20235;-66
2023/10/23 07:41:36;;;;;;;19.83;6.07;;;7.80;99.90;;;;;;5041510;28;20193;-66
2023/10/23 07:44:04;;;;;;;10.85;7.13;;;7.90;99.90;;;;;;5027985;28;20232;-66
2023/10/23 07:46:31;;;;;;;43.15;7.53;;;7.90;99.90;;;;;;5023954;28;20731;-66
2023/10/23 07:48:58;;;;;;;12.50;6.93;;;7.90;99.90;;;;;;5027686;28;20208;-65
2023/10/23 07:51:26;;;;;;;7.95;5.95;;;;;;;;;;5026496;28;20207;-66
2023/10/23 07:53:53;;;;;;;14.77;6.65;;;8.00;99.90;;;;;;5012802;28;20859;-66
2023/10/23 07:56:19;;;;;;;8.65;5.88;;;8.00;99.90;;;;;;5032507;28;20193;-65
2023/10/23 07:58:46;;;;;;;15.68;6.93;;;8.10;99.90;;;;;;5022148;28;20228;-66
2023/10/23 08:01:15;;;;;;;12.85;7.10;;;8.10;99.90;;;;;;5020587;28;20224;-66
2023/10/23 08:03:41;;;;;;;9.20;7.15;;;8.10;99.90;;;;;;5040911;28;20307;-66
2023/10/23 08:06:10;;;;;;;9.98;7.05;;;8.10;99.90;;;;;;5027773;28;20205;-66
2023/10/23 08:08:38;;;;;;;10.93;7.43;;;8.10;99.90;;;;;;5003445;28;20221;-66
2023/10/23 08:11:07;;;;;;;12.65;7.15;;;8.10;99.90;;;;;;5026224;28;20921;-66
2023/10/23 08:13:34;;;;;;;12.38;7.88;;;8.20;99.90;;;;;;5022972;28;20202;-65
2023/10/23 08:16:03;;;;;;;7.63;6.60;;;8.30;99.90;;;;;;5032596;28;21256;-66
2023/10/23 08:18:31;;;;;;;19.80;8.75;;;8.40;99.90;;;;;;5026903;28;20747;-66
2023/10/23 08:20:58;;;;;;;12.98;8.88;;;8.50;99.90;;;;;;5031355;28;20205;-66
2023/10/23 08:23:25;;;;;;;10.23;7.53;;;8.50;99.90;;;;;;4988365;28;20224;-66
2023/10/23 08:25:52;;;;;;;10.43;6.90;;;8.50;99.90;;;;;;5017434;28;21010;-66
2023/10/23 08:28:18;;;;;;;21.60;8.35;;;8.50;99.90;;;;;;5030059;28;20196;-65
2023/10/23 08:30:45;;;;;;;7.40;6.10;;;8.30;99.90;;;;;;5022192;28;20223;-66
2023/10/23 08:33:12;;;;;;;8.80;6.35;;;8.50;99.90;;;;;;5020323;28;20719;-66
2023/10/23 08:35:40;;;;;;;9.90;7.03;;;8.60;99.90;;;;;;5030804;28;20233;-66
2023/10/23 08:38:07;;;;;;;9.25;6.57;;;8.60;99.90;;;;;;5040119;28;20225;-66
2023/10/23 08:40:35;;;;;;;10.45;7.55;;;8.60;99.90;;;;;;5012898;28;20227;-66
2023/10/23 08:43:02;;;;;;;10.50;7.10;;;8.60;99.90;;;;;;5036988;28;20206;-65
2023/10/23 08:45:29;;;;;;;10.60;7.47;;;;;;;;;;5030499;28;20204;-65
2023/10/23 08:47:57;;;;;;;10.73;7.85;;;8.80;99.90;;;;;;5007952;28;20980;-65
2023/10/23 08:50:24;;;;;;;11.13;7.80;;;8.70;99.90;;;;;;5001438;28;20214;-66
2023/10/23 08:52:58;;;;;;;14.38;8.02;;;8.90;99.90;;;;;;5039387;28;20847;-66
2023/10/23 08:55:26;;;;;;;11.93;7.53;;;9.00;99.90;;;;;;4989455;28;20845;-66
2023/10/23 08:57:54;;;;;;;9.15;8.15;;;9.20;99.90;;;;;;5037222;28;21215;-66
2023/10/23 09:00:23;;;;;;;12.95;8.15;;;11.50;99.90;;;;;;5028636;28;20207;-66
2023/10/23 09:02:50;;;;;;;13.02;7.70;;;8.00;99.90;;;;;;5026248;28;20293;-66
2023/10/23 09:05:18;;;;;;;11.10;6.93;;;10.00;99.90;;;;;;5021284;28;20213;-66
2023/10/23 09:07:45;;;;;;;9.00;6.85;;;9.80;99.90;;;;;;5014007;28;20595;-66
2023/10/23 09:10:17;;;;;;;8.85;6.68;;;9.90;99.90;;;;;;5012776;28;20247;-67
2023/10/23 09:12:44;;;;;;;9.05;6.45;;;9.70;99.90;;;;;;5013299;28;20286;-66
2023/10/23 09:15:15;;;;;;;16.92;7.50;;;9.60;99.90;;;;;;5032933;28;20193;-67
2023/10/23 09:17:43;;;;;;;10.88;6.95;;;9.60;99.90;;;;;;5014347;28;20204;-66
2023/10/23 09:20:23;;;;;;;9.10;6.65;;;9.60;99.90;;;;;;5032092;28;20567;-67
2023/10/23 09:22:52;;;;;;;11.40;7.38;;;9.60;99.90;;;;;;5028146;28;20205;-66
2023/10/23 09:25:21;;;;;;;12.43;8.13;;;9.70;99.90;;;;;;5023181;28;20236;-66
2023/10/23 09:27:49;;;;;;;21.05;8.68;;;9.70;99.90;;;;;;4989013;28;20229;-66
2023/10/23 09:30:21;;;;;;;16.80;9.10;;;9.70;99.90;;;;;;5032398;28;20197;-66
2023/10/23 09:32:53;;;;;;;18.92;10.43;;;9.70;99.90;;;;;;5001050;28;20320;-66
2023/10/23 09:35:20;;;;;;;17.20;11.55;;;9.70;99.90;;;;;;5029287;28;20801;-66
2023/10/23 09:37:47;;;;;;;17.25;12.52;;;10.30;99.90;;;;;;5007272;28;20420;-66
2023/10/23 09:40:16;;;;;;;29.88;12.50;;;9.80;99.90;;;;;;5034672;28;20224;-66
2023/10/23 09:42:45;;;;;;;15.70;11.02;;;11.60;99.90;;;;;;4988711;28;20220;-66
2023/10/23 09:45:15;;;;;;;13.65;10.63;;;9.90;99.90;;;;;;5038931;28;20702;-66
2023/10/23 09:47:42;;;;;;;19.75;11.10;;;10.10;99.90;;;;;;5017221;28;20228;-66
2023/10/23 09:50:09;;;;;;;13.50;9.25;;;10.80;99.90;;;;;;5027360;28;20225;-66
2023/10/23 09:52:37;;;;;;;14.70;9.57;;;10.20;99.90;;;;;;5018764;28;20203;-67
2023/10/23 09:55:06;;;;;;;12.63;9.23;;;10.50;99.90;;;;;;5026662;28;20791;-67
2023/10/23 09:57:36;;;;;;;11.15;8.45;;;11.10;99.90;;;;;;5008285;28;20216;-68
2023/10/23 10:00:13;;;;;;;11.15;7.82;;;10.30;99.90;;;;;;5012198;28;20289;-68
2023/10/23 10:02:41;;;;;;;11.30;7.55;;;10.10;99.90;;;;;;5004646;23;20242;-67
2023/10/23 10:05:12;;;;;;;11.23;7.57;;;10.40;99.90;;;;;;4959338;28;20241;-66
2023/10/23 10:07:49;;;;;;;10.35;7.10;;;10.30;99.90;;;;;;4966833;28;20236;-67
2023/10/23 10:10:17;;;;;;;12.05;7.20;;;10.30;99.90;;;;;;4972728;28;20291;-67
2023/10/23 10:12:46;;;;;;;11.32;7.38;;;10.40;99.90;;;;;;4979293;28;20230;-67
2023/10/23 10:15:15;;;;;;;12.05;7.18;;;10.40;99.90;;;;;;4952799;28;20267;-67
2023/10/23 10:17:44;;;;;;;9.75;6.65;;;10.40;99.90;;;;;;4983353;28;20692;-67
2023/10/23 10:20:12;;;;;;;9.52;7.07;;;10.50;99.90;;;;;;4962109;28;21062;-67
2023/10/23 10:22:41;;;;;;;9.57;7.00;;;10.50;99.90;;;;;;4977723;28;20218;-68
2023/10/23 10:25:11;;;;;;;11.88;6.80;;;9.90;99.90;;;;;;4943683;28;20199;-67
2023/10/23 10:27:38;;;;;;;13.00;6.82;;;10.50;99.90;;;;;;4983163;28;20206;-66
2023/10/23 10:30:07;;;;;;;14.32;6.25;;;10.80;99.90;;;;;;4947344;28;21188;-66
2023/10/23 10:32:35;;;;;;;11.98;7.53;;;10.80;99.90;;;;;;4987805;28;20293;-66
2023/10/23 10:35:06;;;;;;;10.77;7.45;;;10.90;99.90;;;;;;4970503;28;20687;-66
2023/10/23 10:37:33;;;;;;;11.23;4.07;;;11.00;99.90;;;;;;4987950;28;20955;-67
2023/10/23 10:40:08;;;;;;;13.70;8.52;;;11.50;99.90;;;;;;4966014;28;20842;-66
2023/10/23 10:42:40;;;;;;;13.30;8.30;;;11.40;99.90;;;;;;4983312;28;20245;-66
2023/10/23 10:45:16;;;;;;;22.70;9.02;;;11.40;99.90;;;;;;4959441;28;20827;-66
2023/10/23 10:47:48;;;;;;;17.50;8.95;;;11.40;99.90;;;;;;4991156;28;20669;-66
2023/10/23 10:50:34;;;;;;;15.07;9.15;;;11.30;99.90;;;;;;4987788;28;20868;-66
2023/10/23 10:53:03;;;;;;;14.63;9.20;;;11.10;99.90;;;;;;4964126;28;20596;-66
2023/10/23 10:55:30;;;;;;;25.10;9.48;;;11.20;99.90;;;;;;4993456;28;20203;-66
2023/10/23 10:57:58;;;;;;;12.63;9.02;;;11.20;99.90;;;;;;4971453;28;20257;-67
2023/10/23 11:00:24;;;;;;;19.77;9.45;;;11.20;99.90;;;;;;4980778;28;20241;-66
2023/10/23 11:02:53;;;;;;;16.75;9.15;;;11.10;99.90;;;;;;4954543;28;25283;-66
2023/10/23 11:05:19;;;;;;;17.85;9.82;;;10.90;99.90;;;;;;4989053;28;20195;-66
2023/10/23 11:07:49;;;;;;;18.35;9.68;;;11.20;99.90;;;;;;4982820;28;20206;-67
2023/10/23 11:10:16;;;;;;;17.65;10.88;;;11.30;99.90;;;;;;4973731;28;21119;-66
2023/10/23 11:12:43;;;;;;;18.58;10.77;;;11.20;99.90;;;;;;4984098;28;20206;-66
2023/10/23 11:15:11;;;;;;;22.85;10.35;;;11.70;99.90;;;;;;4974192;28;20223;-66
2023/10/23 11:17:38;;;;;;;16.15;10.60;;;11.80;99.90;;;;;;4954562;28;20324;-67
2023/10/23 11:20:11;;;;;;;15.65;9.88;;;12.30;99.90;;;;;;4974571;28;20230;-66
2023/10/23 11:22:38;;;;;;;19.63;10.70;;;12.20;99.90;;;;;;4979932;28;20210;-66
2023/10/23 11:25:08;;;;;;;21.17;8.77;;;12.40;99.90;;;;;;4970039;28;20229;-66
2023/10/23 11:27:36;;;;;;;28.10;12.98;;;12.40;99.90;;;;;;4980677;28;20595;-66
2023/10/23 11:30:03;;;;;;;26.40;11.32;;;12.60;99.90;;;;;;4985885;28;20302;-66
2023/10/23 11:32:31;;;;;;;86.07;17.55;;;12.60;99.90;;;;;;4953182;28;20344;-66
2023/10/23 11:35:02;;;;;;;32.90;12.35;;;12.60;99.90;;;;;;4994257;28;20209;-66
2023/10/23 11:37:33;;;;;;;29.17;11.55;;;12.60;99.90;;;;;;4968363;28;20210;-66
2023/10/23 11:40:05;;;;;;;17.30;9.43;;;12.50;99.90;;;;;;4978524;28;20230;-66
2023/10/23 11:42:33;;;;;;;30.63;9.40;;;12.70;99.90;;;;;;4973926;28;20256;-66
2023/10/23 11:45:00;;;;;;;15.93;9.95;;;12.70;99.90;;;;;;4972641;28;20584;-66
2023/10/23 11:47:27;;;;;;;16.58;9.25;;;12.70;99.90;;;;;;4963695;28;20225;-66
2023/10/23 11:49:54;;;;;;;11.32;7.78;;;12.80;99.90;;;;;;4954867;28;20229;-66
2023/10/23 11:52:21;;;;;;;11.25;8.48;;;11.80;99.90;;;;;;4963164;28;20234;-66
2023/10/23 11:54:49;;;;;;;12.80;7.78;;;12.60;99.90;;;;;;5000795;28;20588;-66
2023/10/23 11:57:19;;;;;;;11.52;8.18;;;12.60;99.90;;;;;;4964211;28;20302;-66
2023/10/23 11:59:48;;;;;;;9.60;7.35;;;12.50;99.90;;;;;;4991048;28;20237;-66
2023/10/23 12:02:16;;;;;;;11.02;7.47;;;12.60;99.90;;;;;;4970233;28;22978;-67
2023/10/23 12:04:43;;;;;;;28.70;10.88;;;12.30;99.90;;;;;;4958440;28;20210;-67
2023/10/23 12:07:10;;;;;;;14.35;8.35;;;12.20;99.90;;;;;;4975539;28;20233;-67
2023/10/23 12:09:38;;;;;;;20.05;8.77;;;12.20;99.90;;;;;;4969462;28;20233;-67
2023/10/23 12:12:06;;;;;;;15.00;7.90;;;12.10;99.90;;;;;;4976222;28;20202;-66
2023/10/23 12:14:33;;;;;;;13.15;8.13;;;12.10;99.90;;;;;;4967807;28;20221;-67
2023/10/23 12:17:00;;;;;;;16.27;8.57;;;12.10;99.90;;;;;;4977571;28;20405;-67
2023/10/23 12:19:27;;;;;;;13.68;8.10;;;12.00;99.90;;;;;;4935613;28;20237;-67
2023/10/23 12:21:53;;;;;;;21.17;7.93;;;12.00;99.90;;;;;;4962268;28;20796;-67
2023/10/23 12:24:21;;;;;;;11.60;7.07;;;11.90;99.90;;;;;;4976357;28;21307;-67
2023/10/23 12:26:48;;;;;;;19.15;7.80;;;12.00;99.90;;;;;;4967725;28;20222;-66
2023/10/23 12:29:16;;;;;;;12.30;7.75;;;12.00;99.90;;;;;;4980470;28;20226;-66
2023/10/23 12:31:44;;;;;;;39.67;10.25;;;12.20;99.90;;;;;;4974461;28;20288;-67
2023/10/23 12:34:11;;;;;;;16.67;7.90;;;11.90;99.90;;;;;;4962169;28;20237;-67
2023/10/23 12:36:37;;;;;;;21.25;9.23;;;14.40;99.90;;;;;;4979261;28;20311;-67
2023/10/23 12:39:06;;;;;;;13.80;7.05;;;11.90;99.90;;;;;;4972400;28;20970;-67
2023/10/23 12:41:33;;;;;;;12.93;7.75;;;11.90;99.90;;;;;;4970224;28;20300;-66
2023/10/23 12:44:00;;;;;;;27.67;8.18;;;11.90;99.90;;;;;;4987308;28;20224;-66
2023/10/23 12:46:28;;;;;;;30.48;9.43;;;12.10;99.90;;;;;;4967618;28;20226;-66
2023/10/23 12:48:55;;;;;;;18.60;8.07;;;11.90;99.90;;;;;;4971923;28;20589;-67
2023/10/23 12:51:22;;;;;;;19.20;8.40;;;11.90;99.90;;;;;;4955382;28;20980;-67
2023/10/23 12:53:49;;;;;;;20.08;9.52;;;12.00;99.90;;;;;;4978852;28;20203;-67